Aviation Digital Data Service (ADDS)

Output produced by METARs form (0759 UTC 18 January 2017)
found at http://aviationweather.gov/adds/metars/
 
KJFK 180522Z 1806/1912 04009KT 2SM -RA BR OVC003 
     FM180800 36005KT 2SM -RA BR OVC003 
     FM181300 35007KT 4SM BR BKN006 OVC010 
     FM181800 33010KT 5SM BR BKN010 OVC020 
     FM182100 35009KT P6SM BKN020 OVC035 
     FM190700 33006KT P6SM SCT025 OVC050